HomeShort term forecast

Short term forecast

Graphical weather forecast for the next 48 hours for Montreal:
Short term forecast
This weather forecast is automatically refreshed every 3 hours.

Hourly Experimental Forecast for the next 48 hours

Overall summary: Light snow (1–3 cm.) starting this evening, continuing until tomorrow morning.

 Date & Hour   Temp   Feel   Baro   Hum   Speed & Bearing   Precipitation   Visibility   Cloud cover   Conditions 
 21/01/2018 - 16:00  -1.9°C  -4.0°C  1021.3 hPa  74%  5.7 km/h   --  16.1km  100%  Overcast 
 21/01/2018 - 17:00  -2.2°C  -4.0°C  1021.4 hPa  83%  5.1 km/h   0.02 mm/h  16.1km  100%  Overcast 
 21/01/2018 - 18:00  -2.4°C  -4.7°C  1021.6 hPa  87%  5.7 km/h   0.04 mm/h  10.0km  97%  Overcast 
 21/01/2018 - 19:00  -2.5°C  -5.2°C  1021.9 hPa  86%  6.7 km/h   0.08 mm/h  3.8km  98%  Overcast 
 21/01/2018 - 20:00  -2.4°C  -5.2°C  1022.3 hPa  86%  7.1 km/h   0.13 mm/h  1.2km  98%  Foggy 
 21/01/2018 - 21:00  -2.2°C  -5.1°C  1022.7 hPa  86%  7.4 km/h   0.20 mm/h  0.6km  99%  Possible Light Snow 
 21/01/2018 - 22:00  -2.1°C  -5.2°C  1023.0 hPa  85%  8.2 km/h   0.26 mm/h  0.3km  100%  Possible Light Snow 
 21/01/2018 - 23:00  -2.0°C  -5.6°C  1022.9 hPa  84%  9.5 km/h   0.30 mm/h  0.1km  100%  Possible Light Snow 
 22/01/2018 - 00:00  -2.1°C  -6.2°C  1022.7 hPa  83%  11.2 km/h   0.32 mm/h  0.1km  100%  Possible Light Snow 
 22/01/2018 - 01:00  -2.3°C  -6.8°C  1022.6 hPa  82%  13.1 km/h   0.32 mm/h  0.2km  100%  Possible Light Snow 
 22/01/2018 - 02:00  -2.6°C  -7.6°C  1022.8 hPa  81%  15.1 km/h   0.29 mm/h  0.0km  100%  Possible Light Snow 
 22/01/2018 - 03:00  -3.1°C  -8.6°C  1023.2 hPa  79%  17.2 km/h   0.24 mm/h  0.0km  100%  Possible Light Snow 
 22/01/2018 - 04:00  -3.7°C  -9.7°C  1023.7 hPa  78%  19.1 km/h   0.18 mm/h  0.4km  100%  Possible Light Snow 
 22/01/2018 - 05:00  -4.5°C  -11.0°C  1024.4 hPa  78%  20.7 km/h   0.13 mm/h  2.7km  100%  Foggy 
 22/01/2018 - 06:00  -5.6°C  -12.6°C  1025.2 hPa  77%  22.1 km/h   0.08 mm/h  6.0km  100%  Overcast 
 22/01/2018 - 07:00  -6.5°C  -13.9°C  1025.9 hPa  77%  23.0 km/h   0.04 mm/h  9.9km  100%  Overcast 
 22/01/2018 - 08:00  -7.2°C  -14.9°C  1026.6 hPa  78%  23.4 km/h   0.02 mm/h  14.8km  98%  Overcast 
 22/01/2018 - 09:00  -7.7°C  -15.6°C  1027.2 hPa  78%  23.4 km/h   --  16.1km  96%  Overcast 
 22/01/2018 - 10:00  -8.0°C  -15.9°C  1027.5 hPa  79%  23.3 km/h   --  16.1km  95%  Overcast 
 22/01/2018 - 11:00  -7.9°C  -15.7°C  1027.1 hPa  80%  23.3 km/h   --  16.1km  93%  Mostly Cloudy 
 22/01/2018 - 12:00  -7.4°C  -15.1°C  1026.3 hPa  80%  23.1 km/h   0.01 mm/h  16.1km  92%  Mostly Cloudy 
 22/01/2018 - 13:00  -6.9°C  -14.4°C  1025.6 hPa  80%  23.1 km/h   0.02 mm/h  16.1km  92%  Mostly Cloudy 
 22/01/2018 - 14:00  -6.5°C  -14.1°C  1025.2 hPa  79%  23.5 km/h   0.02 mm/h  16.1km  94%  Overcast 
 22/01/2018 - 15:00  -6.3°C  -13.9°C  1024.8 hPa  79%  24.1 km/h   0.02 mm/h  16.1km  96%  Overcast 
 22/01/2018 - 16:00  -6.2°C  -13.8°C  1024.4 hPa  79%  24.8 km/h   0.06 mm/h  16.1km  99%  Overcast 
 22/01/2018 - 17:00  -6.2°C  -14.0°C  1023.9 hPa  80%  26.0 km/h   0.26 mm/h  16.1km  100%  Snow 
 22/01/2018 - 18:00  -6.3°C  -14.3°C  1023.2 hPa  81%  27.4 km/h   0.81 mm/h  7.4km  100%  Snow and Breezy 
 22/01/2018 - 19:00  -6.2°C  -14.3°C  1022.4 hPa  82%  28.5 km/h   1.44 mm/h  0.6km  100%  Heavy Snow and Breezy 
 22/01/2018 - 20:00  -5.7°C  -13.8°C  1021.5 hPa  81%  29.2 km/h   1.77 mm/h  0.0km  100%  Heavy Snow and Breezy 
 22/01/2018 - 21:00  -5.1°C  -13.1°C  1020.6 hPa  80%  29.4 km/h   1.90 mm/h  0.6km  100%  Heavy Snow and Breezy 
 22/01/2018 - 22:00  -4.4°C  -12.0°C  1019.4 hPa  79%  29.1 km/h   1.95 mm/h  1.7km  100%  Heavy Snow and Breezy 
 22/01/2018 - 23:00  -3.3°C  -10.5°C  1018.1 hPa  80%  27.7 km/h   1.94 mm/h  1.5km  100%  Heavy Snow and Breezy 
 23/01/2018 - 00:00  -2.1°C  -8.7°C  1016.6 hPa  81%  25.5 km/h   1.88 mm/h  1.2km  100%  Heavy Snow and Breezy 
 23/01/2018 - 01:00  -1.1°C  -7.1°C  1015.2 hPa  82%  23.7 km/h   1.78 mm/h  1.1km  100%  Heavy Snow 
 23/01/2018 - 02:00  -0.3°C  -5.9°C  1013.8 hPa  83%  22.3 km/h   1.53 mm/h  1.5km  100%  Snow 
 23/01/2018 - 03:00  0.3°C  -5.0°C  1012.5 hPa  84%  21.2 km/h   1.25 mm/h  2.3km  100%  Light Rain 
 23/01/2018 - 04:00  0.8°C  -4.3°C  1011.2 hPa  86%  20.2 km/h   1.12 mm/h  3.3km  100%  Light Rain 
 23/01/2018 - 05:00  1.1°C  -3.7°C  1009.9 hPa  87%  19.3 km/h   1.07 mm/h  4.9km  100%  Light Rain 
 23/01/2018 - 06:00  1.4°C  -3.3°C  1008.7 hPa  89%  18.7 km/h   1.17 mm/h  6.8km  100%  Light Rain 
 23/01/2018 - 07:00  1.6°C  -2.9°C  1007.4 hPa  91%  17.9 km/h   1.34 mm/h  8.5km  100%  Light Rain 
 23/01/2018 - 08:00  1.7°C  -2.7°C  1006.1 hPa  92%  17.1 km/h   1.69 mm/h  10.3km  100%  Rain 
 23/01/2018 - 09:00  1.7°C  -2.5°C  1004.8 hPa  93%  16.3 km/h   2.52 mm/h  12.0km  100%  Rain 
 23/01/2018 - 10:00  1.8°C  -2.3°C  1003.4 hPa  95%  15.3 km/h   3.19 mm/h  12.2km  100%  Rain 
 23/01/2018 - 11:00  1.8°C  -2.0°C  1001.9 hPa  97%  13.8 km/h   2.87 mm/h  9.9km  100%  Rain 
 23/01/2018 - 12:00  1.8°C  -1.6°C  1000.4 hPa  99%  12.0 km/h   2.22 mm/h  6.2km  100%  Rain 
 23/01/2018 - 13:00  1.8°C  -1.3°C  999.1 hPa  100%  11.0 km/h   1.67 mm/h  3.4km  100%  Rain 
 23/01/2018 - 14:00  1.9°C  -1.3°C  998.1 hPa  99%  11.2 km/h   1.02 mm/h  2.4km  100%  Light Rain 
 23/01/2018 - 15:00  1.9°C  -1.5°C  997.2 hPa  97%  12.0 km/h   0.45 mm/h  2.3km  100%  Foggy 
Test

 

Past weather and reports

Past weatherFind in this section the past weather conditions, weather archive, graphics, reports and statistics.

Current conditions

Current weather condition for MontrealAll you need to know about the current weather conditions for Montreal. Weather data is updated every 10 minutes.

Weather forecast

Current Montreal weatherSince 2004, celinium.com website has provided accurate weather forecast for Montreal's island.